createdAt,value
2019-03-11T00:01:27.344Z,1.20
2019-03-11T00:03:55.115Z,1.00
2019-03-11T00:06:22.836Z,0.90
2019-03-11T00:08:50.495Z,1.07
2019-03-11T00:11:18.425Z,0.90
2019-03-11T00:13:46.059Z,0.80
2019-03-11T00:16:13.846Z,1.07
2019-03-11T00:18:41.533Z,0.97
2019-03-11T00:21:09.281Z,0.93
2019-03-11T00:23:36.929Z,1.00
2019-03-11T00:26:05.407Z,1.15
2019-03-11T00:28:33.180Z,0.80
2019-03-11T00:31:00.943Z,0.60
2019-03-11T00:33:28.656Z,0.50
2019-03-11T00:35:56.381Z,0.50
2019-03-11T00:38:24.138Z,0.50
2019-03-11T00:40:51.890Z,0.50
2019-03-11T00:43:19.574Z,0.60
2019-03-11T00:45:47.539Z,0.80
2019-03-11T00:48:15.412Z,0.50
2019-03-11T00:50:43.028Z,0.63
2019-03-11T00:53:10.821Z,0.60
2019-03-11T00:55:38.602Z,0.70
2019-03-11T00:58:06.396Z,0.90
2019-03-11T01:00:35.264Z,0.80
2019-03-11T01:03:02.907Z,0.90
2019-03-11T01:05:30.797Z,0.87
2019-03-11T01:07:58.571Z,0.90
2019-03-11T01:10:26.427Z,0.70
2019-03-11T13:43:00.385Z,6.57
2019-03-11T13:45:28.020Z,3.00
2019-03-11T13:47:55.725Z,3.30
2019-03-11T13:50:23.497Z,3.83
2019-03-11T13:52:51.368Z,3.30
2019-03-11T13:55:19.129Z,3.57
2019-03-11T13:57:46.995Z,2.23
2019-03-11T14:00:16.500Z,2.40
2019-03-11T14:02:44.364Z,2.57
2019-03-11T14:05:12.129Z,2.83
2019-03-11T14:07:39.901Z,3.63
2019-03-11T14:10:10.041Z,5.37
2019-03-11T14:12:37.684Z,3.27
2019-03-11T14:15:06.993Z,5.63
2019-03-11T14:17:34.764Z,3.17
2019-03-11T14:20:02.503Z,3.57
2019-03-11T14:22:30.298Z,7.37
2019-03-11T14:24:58.049Z,4.03
2019-03-11T14:27:25.803Z,13.73
2019-03-11T14:29:53.594Z,5.30
2019-03-11T14:32:23.136Z,6.37
2019-03-11T14:34:51.156Z,3.90
2019-03-11T14:37:18.940Z,9.00
2019-03-11T14:39:46.709Z,5.77
2019-03-11T14:42:14.363Z,3.83
2019-03-11T14:44:42.018Z,2.93
2019-03-11T14:47:09.795Z,2.10
2019-03-11T14:49:37.456Z,2.60
2019-03-11T14:52:05.611Z,2.25
2019-03-11T14:54:33.403Z,2.10
2019-03-11T14:57:01.160Z,2.77
2019-03-11T14:59:28.803Z,10.17
2019-03-11T15:01:56.599Z,2.47
2019-03-11T15:04:24.464Z,3.00
2019-03-11T15:06:52.835Z,3.47
2019-03-11T15:09:20.587Z,3.23
2019-03-11T15:11:48.374Z,5.03
2019-03-11T15:14:16.244Z,8.23
2019-03-11T15:16:44.000Z,5.43
2019-03-11T15:19:11.765Z,4.67
2019-03-11T15:21:39.538Z,2.87
2019-03-11T15:24:07.287Z,5.00
2019-03-11T15:26:35.180Z,22.47
2019-03-11T15:29:02.811Z,59.07
2019-03-11T15:31:30.514Z,9.40
2019-03-11T15:33:58.359Z,6.17
2019-03-11T15:36:33.310Z,7.80
2019-03-11T15:38:55.532Z,4.77
2019-03-11T15:41:23.172Z,11.90
2019-03-11T15:43:50.872Z,35.00
2019-03-11T15:46:18.541Z,36.17
2019-03-11T15:48:46.275Z,18.50
2019-03-11T15:51:14.217Z,8.60
2019-03-11T15:53:41.908Z,37.97
2019-03-11T15:56:09.571Z,4.80
2019-03-11T15:58:37.341Z,5.20
2019-03-11T16:01:05.129Z,5.60
2019-03-11T16:03:36.495Z,11.97
2019-03-11T16:06:03.429Z,6.40
2019-03-11T16:08:31.280Z,21.73
2019-03-11T16:10:59.067Z,10.70
2019-03-11T16:13:26.926Z,12.30
2019-03-11T16:15:54.674Z,7.40
2019-03-11T16:18:22.767Z,9.63
2019-03-11T16:20:50.466Z,18.67
2019-03-11T16:23:18.401Z,15.30
2019-03-11T16:25:46.475Z,248.53
2019-03-11T16:28:14.337Z,139.67
2019-03-11T16:30:42.087Z,232.07
2019-03-11T16:33:09.970Z,253.97
2019-03-11T16:35:37.737Z,149.70
2019-03-11T16:38:05.506Z,125.13
2019-03-11T16:40:33.369Z,47.93
2019-03-11T16:43:01.073Z,90.90
2019-03-11T16:45:28.719Z,29.67
2019-03-11T16:47:56.368Z,16.57
2019-03-11T16:50:25.558Z,14.10
2019-03-11T16:52:53.325Z,117.07
2019-03-11T16:55:26.012Z,164.20
2019-03-11T16:57:54.014Z,130.03
2019-03-11T17:00:26.349Z,44.67
2019-03-11T17:02:54.225Z,67.23
2019-03-11T17:05:22.093Z,104.23
2019-03-11T17:07:49.852Z,39.40
2019-03-11T17:10:18.332Z,24.07
2019-03-11T17:12:46.313Z,23.47
2019-03-11T17:15:14.072Z,20.93
2019-03-11T17:17:41.745Z,29.77
2019-03-11T17:20:11.146Z,14.17
2019-03-11T17:22:38.802Z,15.23
2019-03-11T17:25:07.572Z,11.00
2019-03-11T17:27:35.463Z,9.40
2019-03-11T17:30:03.433Z,10.00
2019-03-11T17:32:31.409Z,12.60
2019-03-11T17:34:59.071Z,24.53
2019-03-11T17:37:26.828Z,16.33
2019-03-11T17:39:54.713Z,15.90
2019-03-11T17:42:22.456Z,16.90
2019-03-11T17:44:50.237Z,14.67
2019-03-11T17:47:18.103Z,13.37
2019-03-11T17:49:45.878Z,12.70
2019-03-11T17:52:13.742Z,12.33
2019-03-11T17:54:42.571Z,11.93
2019-03-11T17:57:10.604Z,11.03
2019-03-11T17:59:38.575Z,11.50
2019-03-11T18:02:06.443Z,10.73
2019-03-11T18:04:34.204Z,9.70
2019-03-11T18:07:01.984Z,9.60
2019-03-11T18:09:29.615Z,10.03
2019-03-11T18:11:57.410Z,9.50
2019-03-11T18:14:25.272Z,10.10
2019-03-11T18:16:53.136Z,12.47
2019-03-11T18:19:20.831Z,15.93
2019-03-11T18:21:48.564Z,12.40
2019-03-11T18:24:16.442Z,50.60
2019-03-11T18:26:44.420Z,56.80
2019-03-11T18:58:19.965Z,17.43
2019-03-11T19:00:47.713Z,69.60
2019-03-11T19:03:15.579Z,15.90
2019-03-11T19:05:43.349Z,16.00
2019-03-11T19:08:11.223Z,26.13
2019-03-11T19:10:39.283Z,26.23
2019-03-11T19:13:09.467Z,20.87
2019-03-11T19:15:36.336Z,18.97
2019-03-11T19:18:04.316Z,15.77
2019-03-11T19:20:32.129Z,15.67
2019-03-11T19:22:59.970Z,18.50
2019-03-11T19:25:27.862Z,18.67
2019-03-11T19:27:55.476Z,16.37
2019-03-11T19:30:24.105Z,13.17
2019-03-11T19:32:51.741Z,21.40
2019-03-11T19:35:19.828Z,20.00
2019-03-11T19:37:47.604Z,13.60
2019-03-11T19:40:19.150Z,12.10
2019-03-11T19:42:46.897Z,12.43
2019-03-11T19:45:15.844Z,19.10
2019-03-11T19:47:44.102Z,14.93
2019-03-11T19:50:13.053Z,16.80
2019-03-11T19:52:41.004Z,26.10
2019-03-11T19:55:09.047Z,24.37
2019-03-11T19:57:36.934Z,23.73
2019-03-11T20:00:06.141Z,21.00
2019-03-11T20:02:34.074Z,16.97
2019-03-11T20:05:01.935Z,17.00
2019-03-11T20:07:30.576Z,16.30
2019-03-11T20:09:58.462Z,17.67
2019-03-11T20:12:26.357Z,14.17
2019-03-11T20:14:54.113Z,16.03
2019-03-11T20:17:22.006Z,20.57
2019-03-11T20:19:49.799Z,19.67
2019-03-11T20:22:17.712Z,19.83
2019-03-11T20:24:45.662Z,16.03
2019-03-11T20:27:13.399Z,20.43
2019-03-11T20:29:41.117Z,14.20
2019-03-11T20:32:08.997Z,15.40
2019-03-11T20:34:36.664Z,12.83
2019-03-11T20:37:04.380Z,14.57
2019-03-11T20:39:32.088Z,13.60
2019-03-11T20:41:59.876Z,12.57
2019-03-11T20:44:27.666Z,14.80
2019-03-11T20:46:55.616Z,13.50
2019-03-11T20:49:23.337Z,16.47
2019-03-11T20:51:51.119Z,21.43
2019-03-11T20:54:18.947Z,13.10
2019-03-11T20:56:46.880Z,12.50
2019-03-11T20:59:14.676Z,13.07
2019-03-11T21:01:42.356Z,14.47
2019-03-11T21:04:10.236Z,14.30
2019-03-11T21:06:38.264Z,16.10
2019-03-11T21:09:07.470Z,17.17
2019-03-11T21:11:35.296Z,15.67
2019-03-11T21:14:02.996Z,15.83
2019-03-11T21:16:30.832Z,15.27
2019-03-11T21:18:58.691Z,12.47
2019-03-11T21:21:26.567Z,12.43
2019-03-11T21:24:01.953Z,12.93
2019-03-11T21:26:23.779Z,12.23
2019-03-11T21:28:51.697Z,13.47
2019-03-11T21:31:22.134Z,12.70
2019-03-11T21:33:58.422Z,13.27
2019-03-11T21:36:19.410Z,12.53
2019-03-11T21:38:47.265Z,13.00
2019-03-11T21:41:15.150Z,12.47
2019-03-11T21:43:43.358Z,13.20
2019-03-11T21:46:11.165Z,13.13
2019-03-11T21:48:39.011Z,12.80
2019-03-11T21:51:06.801Z,11.20
2019-03-11T21:53:34.506Z,10.83
2019-03-11T21:56:02.262Z,13.27
2019-03-11T21:58:30.048Z,12.80
2019-03-11T22:00:57.631Z,14.13
2019-03-11T22:03:25.520Z,14.33
2019-03-11T22:05:53.188Z,13.47
2019-03-11T22:08:20.956Z,13.37
2019-03-11T22:10:48.734Z,12.63
2019-03-11T22:13:16.501Z,12.40
2019-03-11T22:15:44.248Z,11.80
2019-03-11T22:18:12.017Z,12.63
2019-03-11T22:20:39.894Z,13.03
2019-03-11T22:23:07.642Z,12.10
2019-03-11T22:25:35.287Z,11.90
2019-03-11T22:28:03.085Z,12.00
2019-03-11T22:30:30.764Z,13.83
2019-03-11T22:32:58.531Z,13.70
2019-03-11T22:35:28.929Z,13.57
2019-03-11T22:37:55.682Z,11.93
2019-03-11T22:40:23.445Z,13.13
2019-03-11T22:42:51.199Z,13.90
2019-03-11T22:45:22.507Z,13.87
2019-03-11T22:47:50.631Z,13.43
2019-03-11T22:50:18.616Z,13.33
2019-03-11T22:52:46.260Z,13.70
2019-03-11T22:55:14.023Z,13.83
2019-03-11T22:57:41.813Z,11.33
2019-03-11T23:00:29.141Z,11.30
2019-03-11T23:02:56.992Z,12.00
2019-03-11T23:05:24.764Z,12.10
2019-03-11T23:07:52.411Z,11.50
2019-03-11T23:10:20.300Z,10.23
2019-03-11T23:12:48.056Z,11.20
2019-03-11T23:15:15.837Z,11.00
2019-03-11T23:17:43.710Z,11.37
2019-03-11T23:20:11.564Z,10.90
2019-03-11T23:22:39.438Z,11.40
2019-03-11T23:25:07.899Z,10.57
2019-03-11T23:27:35.668Z,11.23
2019-03-11T23:30:05.295Z,11.40
2019-03-11T23:32:33.059Z,10.20
2019-03-11T23:35:00.693Z,10.43
2019-03-11T23:37:28.588Z,9.97
2019-03-11T23:39:56.247Z,10.93
2019-03-11T23:42:23.901Z,9.33
2019-03-11T23:44:51.676Z,10.00
2019-03-11T23:47:19.444Z,9.13
2019-03-11T23:49:47.225Z,11.00
2019-03-11T23:52:14.973Z,8.63
2019-03-11T23:58:16.397Z,9.77
